Flight Track Log - Related Links

Times and Time Zones

All times are in EDT time to prevent confusion due to time zone crossing. See the N4746H flight status page for this flight to view local times or setup timezone preferences in your user account.

Time Position Orientation Groundspeed Altitude Reporting Facility
EDT Latitude Longitude Course Direction KTS MPH feet Rate Location/Type
Tue 01:32:18 PM 38.5328 -86.3319 91° East 114 131 5,000  Level Indianapolis Center
Tue 01:33:20 PM 38.5339 -86.2903 88° East 115 132 5,400 244 Climbing Indianapolis Center
Tue 01:34:21 PM 38.5364 -86.2456 86° East 120 138 5,500 49 Climbing Indianapolis Center
Tue 01:35:00 PM 38.5205 -86.3347 86° East  Level FlightAware Approximate
Tue 01:35:23 PM 38.5375 -86.1917 88° East 143 165 5,500  Level Indianapolis Center
Tue 01:36:00 PM 38.5235 -86.2846 86° East  Level FlightAware Approximate
Tue 01:36:25 PM 38.5392 -86.1228 88° East 157 181 5,500  Level Indianapolis Center
Tue 01:37:27 PM 38.5425 -86.0656 86° East 158 182 5,500  Level Indianapolis Center
Tue 01:38:29 PM 38.5478 -86.0056 84° East 166 191 5,500  Level Indianapolis Center
Tue 01:39:31 PM 38.5528 -85.9456 84° East 166 191 5,500  Level Indianapolis Center
Tue 01:40:33 PM 38.5553 -85.8861 87° East 166 191 5,500  Level Indianapolis Center
Tue 01:41:34 PM 38.5578 -85.8258 87° East 166 191 5,500  Level Indianapolis Center
Tue 01:42:36 PM 38.5606 -85.7675 86° East 166 191 5,500  Level Indianapolis Center
Tue 01:43:38 PM 38.5628 -85.7097 87° East 166 191 5,500  Level Indianapolis Center
Tue 01:44:40 PM 38.5636 -85.6378 89° East 166 191 5,500  Level Indianapolis Center
Tue 01:45:42 PM 38.5672 -85.5792 85° East 166 191 5,500  Level Indianapolis Center
Tue 01:46:43 PM 38.5722 -85.5208 84° East 166 191 5,500  Level Indianapolis Center
Tue 01:47:45 PM 38.5778 -85.4614 83° East 166 191 5,500  Level Indianapolis Center
Tue 01:48:47 PM 38.5822 -85.4033 84° East 166 191 5,500  Level Indianapolis Center
Tue 01:49:49 PM 38.5856 -85.3444 86° East 166 191 5,500  Level Indianapolis Center
Tue 01:50:51 PM 38.5872 -85.2856 88° East 166 191 5,500  Level Indianapolis Center
Tue 01:51:52 PM 38.5883 -85.2264 89° East 166 191 5,500  Level Indianapolis Center
Tue 01:53:26 PM 38.6000 -85.1167 82° East 166 191 5,500  Level Cincinnati TRACON
Tue 01:54:20 PM 38.6000 -85.0667 90° East 165 190 5,500  Level Cincinnati TRACON
Tue 01:55:20 PM 38.6000 -85.0167 90° East 169 194 5,500  Level Cincinnati TRACON
Tue 01:56:20 PM 38.6000 -84.9500 90° East 167 192 5,500  Level Cincinnati TRACON
Tue 01:57:20 PM 38.6000 -84.9000 90° East 167 192 5,500  Level Cincinnati TRACON
Tue 01:58:20 PM 38.6000 -84.8333 90° East 170 196 5,500  Level Cincinnati TRACON
Tue 01:59:14 PM 38.6167 -84.7833 67° East 167 192 5,500  Level Cincinnati TRACON
Tue 02:00:14 PM 38.6167 -84.7167 90° East 169 194 5,500  Level Cincinnati TRACON
Tue 02:00:44 PM 38.6192 -84.6947 82° East 167 192 5,500  Level Indianapolis Center
Tue 02:01:45 PM 38.6233 -84.6347 85° East 167 192 5,500  Level Indianapolis Center
Tue 02:02:47 PM 38.6208 -84.5758 93° East 167 192 5,500  Level Indianapolis Center
Tue 02:03:49 PM 38.6194 -84.5161 92° East 167 192 5,500  Level Indianapolis Center
Tue 02:04:51 PM 38.6225 -84.4578 86° East 167 192 5,500  Level Indianapolis Center
Tue 02:05:53 PM 38.6256 -84.3897 87° East 167 192 5,500  Level Indianapolis Center
Tue 02:06:55 PM 38.6278 -84.3297 87° East 167 192 5,500  Level Indianapolis Center
Tue 02:07:56 PM 38.6336 -84.2703 83° East 167 192 5,500  Level Indianapolis Center
Tue 02:08:58 PM 38.6383 -84.2100 84° East 167 192 5,500  Level Indianapolis Center
Tue 02:10:00 PM 38.6422 -84.1506 85° East 167 192 5,500  Level Indianapolis Center
Tue 02:11:02 PM 38.6453 -84.0911 86° East 167 192 5,500  Level Indianapolis Center
Tue 02:12:04 PM 38.6481 -84.0217 87° East 168 193 5,500  Level Indianapolis Center
Tue 02:13:06 PM 38.6500 -83.9633 88° East 167 192 5,500  Level Indianapolis Center
Tue 02:14:08 PM 38.6522 -83.9033 87° East 167 192 5,500  Level Indianapolis Center
Tue 02:15:09 PM 38.6533 -83.8444 89° East 167 192 5,500  Level Indianapolis Center
Tue 02:16:11 PM 38.6558 -83.7844 87° East 167 192 5,500  Level Indianapolis Center
Tue 02:17:13 PM 38.6575 -83.7228 88° East 168 193 5,500  Level Indianapolis Center
Tue 02:18:15 PM 38.6600 -83.6661 87° East 168 193 5,500  Level Indianapolis Center
Tue 02:19:17 PM 38.6631 -83.5925 87° East 171 197 5,500  Level Indianapolis Center
Tue 02:20:19 PM 38.6656 -83.5336 87° East 170 196 5,500  Level Indianapolis Center
Tue 02:21:21 PM 38.6683 -83.4719 87° East 170 196 5,500  Level Indianapolis Center
Tue 02:22:23 PM 38.6706 -83.4125 87° East 170 196 5,500  Level Indianapolis Center
Tue 02:23:25 PM 38.6725 -83.3522 88° East 170 196 5,500  Level Indianapolis Center
Tue 02:24:26 PM 38.6747 -83.2936 87° East 170 196 5,500  Level Indianapolis Center
Tue 02:25:28 PM 38.6767 -83.2211 88° East 170 196 5,500  Level Indianapolis Center
Tue 02:26:30 PM 38.6783 -83.1647 88° East 170 196 5,500  Level Indianapolis Center
Tue 02:27:32 PM 38.6778 -83.1053 91° East 170 196 5,500  Level Indianapolis Center
Tue 02:28:34 PM 38.6794 -83.0444 88° East 170 196 5,500  Level Indianapolis Center
Tue 02:29:36 PM 38.6792 -82.9722 90° East 170 196 5,500  Level Indianapolis Center
Tue 02:30:38 PM 38.6800 -82.9122 89° East 170 196 5,500  Level Indianapolis Center
Tue 02:31:40 PM 38.6831 -82.8511 86° East 170 196 5,500  Level Indianapolis Center
Tue 02:32:42 PM 38.6867 -82.7917 86° East 170 196 5,500  Level Indianapolis Center
Tue 02:33:44 PM 38.6900 -82.7303 86° East 170 196 5,500  Level Indianapolis Center
Tue 02:34:46 PM 38.6922 -82.6692 87° East 170 196 5,500  Level Indianapolis Center
Tue 02:35:48 PM 38.6917 -82.6078 91° East 170 196 5,500  Level Indianapolis Center
Tue 02:36:50 PM 38.6900 -82.5344 92° East 170 196 5,500  Level Indianapolis Center
Tue 02:37:52 PM 38.6903 -82.4750 90° East 170 196 5,500  Level Indianapolis Center
Tue 02:38:54 PM 38.6906 -82.4147 90° East 170 196 5,500  Level Indianapolis Center
Tue 02:39:56 PM 38.6939 -82.3556 86° East 170 196 5,500  Level Indianapolis Center
Tue 02:40:58 PM 38.6958 -82.2950 88° East 170 196 5,500  Level Indianapolis Center
Tue 02:42:00 PM 38.7003 -82.2339 85° East 170 196 5,500  Level Indianapolis Center
Tue 02:43:02 PM 38.7033 -82.1742 86° East 170 196 5,500  Level Indianapolis Center
Tue 02:44:04 PM 38.7067 -82.1025 87° East 170 196 5,500  Level Indianapolis Center
Tue 02:45:06 PM 38.7089 -82.0425 87° East 170 196 5,500  Level Indianapolis Center
Tue 02:46:08 PM 38.7117 -81.9828 87° East 170 196 5,500  Level Indianapolis Center
Tue 02:47:10 PM 38.7117 -81.9225 90° East 169 194 5,500  Level Indianapolis Center
Tue 02:48:12 PM 38.7089 -81.8631 93° East 169 194 5,500  Level Indianapolis Center
Tue 02:49:14 PM 38.7072 -81.8025 92° East 169 194 5,500  Level Indianapolis Center
Tue 02:50:16 PM 38.7047 -81.7317 93° East 168 193 5,500  Level Indianapolis Center
Tue 02:51:18 PM 38.7108 -81.6708 83° East 170 196 5,500  Level Indianapolis Center
Tue 02:52:20 PM 38.7161 -81.6119 83° East 170 196 5,500  Level Indianapolis Center
Tue 02:53:22 PM 38.7189 -81.5503 87° East 169 194 5,500  Level Indianapolis Center
Tue 02:54:25 PM 38.7189 -81.4869 90° East 169 194 5,500  Level Indianapolis Center
Tue 02:55:27 PM 38.7206 -81.4256 88° East 169 194 5,500  Level Indianapolis Center
Tue 02:56:29 PM 38.7219 -81.3642 88° East 170 196 5,500  Level Indianapolis Center
Tue 02:57:31 PM 38.7228 -81.3028 89° East 170 196 5,500  Level Indianapolis Center
Tue 02:58:33 PM 38.7242 -81.2422 88° East 170 196 5,500  Level Indianapolis Center
Tue 02:59:35 PM 38.7256 -81.1703 89° East 170 196 5,500  Level Indianapolis Center
Tue 03:00:37 PM 38.7258 -81.1125 90° East 169 194 5,500  Level Indianapolis Center
Tue 03:01:39 PM 38.7261 -81.0539 90° East 167 192 5,500 48 Level Indianapolis Center
Tue 03:02:41 PM 38.7261 -80.9953 90° East 167 192 5,600  Climbing Indianapolis Center
Tue 03:03:43 PM 38.7278 -80.9406 88° East 163 188 5,500 -48 Descending Indianapolis Center
Tue 03:04:45 PM 38.7297 -80.8881 87° East 154 177 5,500  Level Indianapolis Center
Tue 03:05:48 PM 38.7303 -80.8272 89° East 147 169 5,500 48 Level Indianapolis Center
Tue 03:06:50 PM 38.7297 -80.7719 91° East 148 170 5,600  Climbing Indianapolis Center
Tue 03:07:52 PM 38.7297 -80.7192 90° East 151 174 5,500 48 Descending Indianapolis Center
Tue 03:08:54 PM 38.7319 -80.6714 87° East 143 165 5,700 435 Climbing Indianapolis Center
Tue 03:09:56 PM 38.7372 -80.6247 82° East 137 158 6,400 677 Climbing Indianapolis Center
Tue 03:10:58 PM 38.7406 -80.5794 85° East 133 153 7,100 581 Climbing Indianapolis Center
Tue 03:12:00 PM 38.7408 -80.5300 90° East 120 138 7,600 242 Climbing Indianapolis Center
Tue 03:13:02 PM 38.7403 -80.4764 91° East 146 168 7,600  Level Indianapolis Center
Tue 03:14:04 PM 38.7358 -80.4167 95° East 165 190 7,600  Level Indianapolis Center
Tue 03:15:06 PM 38.7317 -80.3547 95° East 170 196 7,600  Level Indianapolis Center
Tue 03:16:08 PM 38.7281 -80.2947 94° East 170 196 7,600  Level Indianapolis Center
Tue 03:17:10 PM 38.7336 -80.2336 83° East 170 196 7,600  Level Indianapolis Center
Tue 03:18:13 PM 38.7383 -80.1728 84° East 170 196 7,600  Level Indianapolis Center
Tue 03:19:15 PM 38.7367 -80.0994 92° East 171 197 7,600  Level Indianapolis Center
Tue 03:21:40 PM 38.7339 -79.9644 91° East 166 191 7,600  Level Washington Center
Tue 03:22:41 PM 38.7336 -79.9083 90° East 161 185 7,600  Level Washington Center
Tue 03:23:41 PM 38.7339 -79.8472 90° East 161 185 7,600  Level Washington Center
Tue 03:24:39 PM 38.7339 -79.7861 90° East 156 180 7,600  Level Washington Center
Tue 03:25:39 PM 38.7336 -79.7328 90° East 156 180 7,600  Level Washington Center
Tue 03:26:40 PM 38.7333 -79.6794 90° East 156 180 7,600  Level Washington Center
Tue 03:27:40 PM 38.7333 -79.6236 90° East 156 180 7,600  Level Washington Center
Tue 03:28:41 PM 38.7347 -79.5758 88° East 156 180 7,600 -50 Level Washington Center
Tue 03:29:41 PM 38.7367 -79.5228 87° East 156 180 7,500 -51 Descending Washington Center
Tue 03:30:39 PM 38.7383 -79.4669 88° East 156 180 7,500  Level Washington Center
Tue 03:31:41 PM 38.7400 -79.4164 88° East 156 180 7,500  Level Washington Center
Tue 03:32:41 PM 38.7419 -79.3553 88° East 156 180 7,500  Level Washington Center
Tue 03:33:40 PM 38.7394 -79.3044 94° East 151 174 7,500  Level Washington Center
Tue 03:34:40 PM 38.7389 -79.2514 91° East 151 174 7,500  Level Washington Center
Tue 03:35:41 PM 38.7364 -79.1928 93° East 164 189 7,500  Level Washington Center
Tue 03:36:41 PM 38.7339 -79.1367 93° East 159 183 7,500  Level Washington Center
Tue 03:37:41 PM 38.7356 -79.0836 88° East 159 183 7,500  Level Washington Center
Tue 03:38:39 PM 38.7350 -79.0275 91° East 159 183 7,500  Level Washington Center
Tue 03:39:39 PM 38.7347 -78.9689 90° East 159 183 7,500  Level Washington Center
Tue 03:40:40 PM 38.7361 -78.9131 88° East 159 183 7,500 49 Level Washington Center
Tue 03:41:41 PM 38.7356 -78.8572 91° East 159 183 7,600 50 Climbing Washington Center
Tue 03:42:41 PM 38.7350 -78.8014 91° East 159 183 7,600  Level Washington Center
Tue 03:43:39 PM 38.7325 -78.7453 93° East 159 183 7,600  Level Washington Center
Tue 03:44:40 PM 38.7297 -78.6919 94° East 159 183 7,600  Level Washington Center
Tue 03:45:41 PM 38.7331 -78.6336 86° East 159 183 7,600  Level Washington Center
Tue 03:46:41 PM 38.7347 -78.5778 88° East 159 183 7,600 -50 Level Washington Center
Tue 03:47:42 PM 38.7361 -78.5167 88° East 159 183 7,500 -51 Descending Washington Center
Tue 03:48:39 PM 38.7375 -78.4608 88° East 159 183 7,500 -51 Level Washington Center
Tue 03:49:39 PM 38.7386 -78.4050 89° East 159 183 7,400 -298 Descending Washington Center
Tue 03:50:40 PM 38.7381 -78.3464 91° East 159 183 6,900 -496 Descending Washington Center
Tue 03:51:40 PM 38.7331 -78.2903 96° East 159 183 6,400 -545 Descending Washington Center
Tue 03:52:41 PM 38.7303 -78.2317 93° East 159 183 5,800 -496 Descending Washington Center
Tue 03:53:41 PM 38.7272 -78.1731 94° East 159 183 5,400 -454 Descending Washington Center
Tue 03:54:40 PM 38.7283 -78.1172 89° East 159 183 4,900 -866 Descending Washington Center
Tue 03:57:02 PM 38.7333 -77.9833 87° East 147 169 2,500 -802 Descending Potomac TRACON
Tue 03:58:02 PM 38.7333 -77.9333 90° East 131 151 2,200 -100 Descending Potomac TRACON
Tue 03:59:02 PM 38.7333 -77.8833 90° East 132 152 2,300  Climbing Potomac TRACON
Tue 03:59:57 PM 38.7333 -77.8500 90° East 138 159 2,200 -50 Descending Potomac TRACON
Tue 04:01:03 PM 38.7333 -77.7833 90° East 134 154 2,200  Level Potomac TRACON
Tue 04:01:57 PM 38.7333 -77.7500 90° East 135 155 2,200 -105 Level Potomac TRACON
Tue 04:02:57 PM 38.7333 -77.7000 90° East 137 158 2,000 -248 Descending Potomac TRACON
Tue 04:03:58 PM 38.7333 -77.6500 90° East 132 152 1,700 -198 Descending Potomac TRACON
Tue 04:04:58 PM 38.7333 -77.6000 90° East 134 154 1,600 -150 Descending Potomac TRACON
Tue 04:05:58 PM 38.7333 -77.5667 90° East 110 127 1,400 -400 Descending Potomac TRACON
Tue 04:06:58 PM 38.7500 -77.5333 57° Northeast 105 121 800 -600 Descending Potomac TRACON
Tue 04:08:00 PM 38.7210 -77.5151 90° East  Level Estimated
Tue 04:15:00 PM 38.7210 -77.5151 90° East  Level Estimated
Tue 04:16:00 PM 38.7210 -77.5151 90° East  Level Estimated

Login

Don't have an account? Register now (free) for customized features, flight alerts, and more!